sensor_id;sensor_type;location;lat;lon;timestamp;P1;durP1;ratioP1;P2;durP2;ratioP2
6497;SDS011;3282;48.358;10.958;2022-12-07T00:01:30;15.20;;;10.45;;
6497;SDS011;3282;48.358;10.958;2022-12-07T00:04:01;16.63;;;10.65;;
6497;SDS011;3282;48.358;10.958;2022-12-07T00:06:31;17.42;;;11.23;;
6497;SDS011;3282;48.358;10.958;2022-12-07T00:09:00;17.40;;;11.30;;
6497;SDS011;3282;48.358;10.958;2022-12-07T00:11:27;15.60;;;10.40;;
6497;SDS011;3282;48.358;10.958;2022-12-07T00:13:55;16.55;;;10.63;;
6497;SDS011;3282;48.358;10.958;2022-12-07T00:16:24;16.30;;;10.40;;
6497;SDS011;3282;48.358;10.958;2022-12-07T00:18:53;15.57;;;10.70;;
6497;SDS011;3282;48.358;10.958;2022-12-07T00:21:21;17.10;;;11.00;;
6497;SDS011;3282;48.358;10.958;2022-12-07T00:23:50;15.40;;;10.35;;
6497;SDS011;3282;48.358;10.958;2022-12-07T00:26:19;16.75;;;10.70;;
6497;SDS011;3282;48.358;10.958;2022-12-07T00:28:51;18.80;;;12.00;;
6497;SDS011;3282;48.358;10.958;2022-12-07T00:31:23;17.85;;;11.43;;
6497;SDS011;3282;48.358;10.958;2022-12-07T00:33:52;18.45;;;11.95;;
6497;SDS011;3282;48.358;10.958;2022-12-07T00:36:21;16.55;;;11.40;;
6497;SDS011;3282;48.358;10.958;2022-12-07T00:38:53;17.58;;;11.38;;
6497;SDS011;3282;48.358;10.958;2022-12-07T00:41:21;15.88;;;11.05;;
6497;SDS011;3282;48.358;10.958;2022-12-07T00:43:49;16.90;;;11.05;;
6497;SDS011;3282;48.358;10.958;2022-12-07T00:46:17;18.10;;;11.48;;
6497;SDS011;3282;48.358;10.958;2022-12-07T00:48:45;16.48;;;11.00;;
6497;SDS011;3282;48.358;10.958;2022-12-07T00:51:13;17.13;;;11.45;;
6497;SDS011;3282;48.358;10.958;2022-12-07T00:53:41;16.90;;;10.80;;
6497;SDS011;3282;48.358;10.958;2022-12-07T00:56:08;17.63;;;11.20;;
6497;SDS011;3282;48.358;10.958;2022-12-07T00:58:40;17.83;;;10.45;;
6497;SDS011;3282;48.358;10.958;2022-12-07T01:01:08;16.08;;;10.43;;
6497;SDS011;3282;48.358;10.958;2022-12-07T01:03:36;19.15;;;11.25;;
6497;SDS011;3282;48.358;10.958;2022-12-07T01:06:03;16.42;;;11.02;;
6497;SDS011;3282;48.358;10.958;2022-12-07T01:08:30;18.25;;;11.02;;
6497;SDS011;3282;48.358;10.958;2022-12-07T01:11:01;16.77;;;10.73;;
6497;SDS011;3282;48.358;10.958;2022-12-07T01:13:30;16.95;;;11.18;;
6497;SDS011;3282;48.358;10.958;2022-12-07T01:15:58;16.55;;;11.07;;
6497;SDS011;3282;48.358;10.958;2022-12-07T01:18:27;15.65;;;10.35;;
6497;SDS011;3282;48.358;10.958;2022-12-07T01:21:02;16.85;;;10.32;;
6497;SDS011;3282;48.358;10.958;2022-12-07T01:23:34;14.85;;;9.98;;
6497;SDS011;3282;48.358;10.958;2022-12-07T01:26:04;15.57;;;10.43;;
6497;SDS011;3282;48.358;10.958;2022-12-07T01:28:33;16.55;;;10.38;;
6497;SDS011;3282;48.358;10.958;2022-12-07T01:31:01;16.40;;;10.30;;
6497;SDS011;3282;48.358;10.958;2022-12-07T01:33:34;16.33;;;10.80;;
6497;SDS011;3282;48.358;10.958;2022-12-07T01:36:02;15.73;;;10.20;;
6497;SDS011;3282;48.358;10.958;2022-12-07T01:38:30;14.90;;;10.07;;
6497;SDS011;3282;48.358;10.958;2022-12-07T01:40:58;15.43;;;9.82;;
6497;SDS011;3282;48.358;10.958;2022-12-07T01:43:28;15.40;;;10.15;;
6497;SDS011;3282;48.358;10.958;2022-12-07T01:45:56;15.18;;;9.57;;
6497;SDS011;3282;48.358;10.958;2022-12-07T01:48:38;16.83;;;11.05;;
6497;SDS011;3282;48.358;10.958;2022-12-07T01:51:10;16.30;;;10.05;;
6497;SDS011;3282;48.358;10.958;2022-12-07T01:53:40;15.27;;;10.07;;
6497;SDS011;3282;48.358;10.958;2022-12-07T01:56:11;14.85;;;9.85;;
6497;SDS011;3282;48.358;10.958;2022-12-07T01:58:43;16.20;;;10.50;;
6497;SDS011;3282;48.358;10.958;2022-12-07T02:01:11;15.88;;;10.48;;
6497;SDS011;3282;48.358;10.958;2022-12-07T02:03:39;15.98;;;10.43;;
6497;SDS011;3282;48.358;10.958;2022-12-07T02:06:08;15.75;;;10.05;;
6497;SDS011;3282;48.358;10.958;2022-12-07T02:08:38;15.60;;;10.30;;
6497;SDS011;3282;48.358;10.958;2022-12-07T02:11:06;16.65;;;10.90;;
6497;SDS011;3282;48.358;10.958;2022-12-07T02:13:35;17.08;;;10.80;;
6497;SDS011;3282;48.358;10.958;2022-12-07T02:16:11;15.13;;;10.30;;
6497;SDS011;3282;48.358;10.958;2022-12-07T02:24:24;15.23;;;10.40;;
6497;SDS011;3282;48.358;10.958;2022-12-07T02:29:42;17.73;;;10.93;;
6497;SDS011;3282;48.358;10.958;2022-12-07T02:34:54;16.10;;;10.43;;
6497;SDS011;3282;48.358;10.958;2022-12-07T02:37:28;18.05;;;11.35;;
6497;SDS011;3282;48.358;10.958;2022-12-07T02:40:01;17.10;;;11.32;;
6497;SDS011;3282;48.358;10.958;2022-12-07T02:42:35;17.50;;;11.65;;
6497;SDS011;3282;48.358;10.958;2022-12-07T02:45:06;20.42;;;12.77;;
6497;SDS011;3282;48.358;10.958;2022-12-07T02:47:34;17.30;;;11.43;;
6497;SDS011;3282;48.358;10.958;2022-12-07T02:50:04;17.17;;;11.40;;
6497;SDS011;3282;48.358;10.958;2022-12-07T02:52:32;18.73;;;11.20;;
6497;SDS011;3282;48.358;10.958;2022-12-07T02:54:58;17.13;;;10.93;;
6497;SDS011;3282;48.358;10.958;2022-12-07T02:57:33;18.98;;;12.13;;
6497;SDS011;3282;48.358;10.958;2022-12-07T03:00:09;15.73;;;10.88;;
6497;SDS011;3282;48.358;10.958;2022-12-07T03:02:42;16.27;;;10.65;;
6497;SDS011;3282;48.358;10.958;2022-12-07T03:05:31;16.95;;;11.18;;
6497;SDS011;3282;48.358;10.958;2022-12-07T03:11:14;17.27;;;11.20;;
6497;SDS011;3282;48.358;10.958;2022-12-07T03:14:01;16.92;;;11.30;;
6497;SDS011;3282;48.358;10.958;2022-12-07T03:16:37;18.65;;;12.02;;
6497;SDS011;3282;48.358;10.958;2022-12-07T03:19:10;19.63;;;12.02;;
6497;SDS011;3282;48.358;10.958;2022-12-07T03:21:42;17.50;;;11.32;;
6497;SDS011;3282;48.358;10.958;2022-12-07T03:24:14;20.10;;;11.52;;
6497;SDS011;3282;48.358;10.958;2022-12-07T03:26:45;16.30;;;11.02;;
6497;SDS011;3282;48.358;10.958;2022-12-07T03:29:58;16.70;;;10.95;;
6497;SDS011;3282;48.358;10.958;2022-12-07T03:32:19;18.20;;;11.23;;
6497;SDS011;3282;48.358;10.958;2022-12-07T03:34:53;17.27;;;11.27;;
6497;SDS011;3282;48.358;10.958;2022-12-07T03:37:33;17.98;;;11.27;;
6497;SDS011;3282;48.358;10.958;2022-12-07T03:42:30;17.90;;;11.73;;
6497;SDS011;3282;48.358;10.958;2022-12-07T03:45:00;14.98;;;10.35;;
6497;SDS011;3282;48.358;10.958;2022-12-07T03:50:13;15.67;;;10.33;;
6497;SDS011;3282;48.358;10.958;2022-12-07T03:52:53;18.25;;;11.27;;
6497;SDS011;3282;48.358;10.958;2022-12-07T03:55:28;16.95;;;10.68;;
6497;SDS011;3282;48.358;10.958;2022-12-07T03:57:59;17.75;;;11.38;;
6497;SDS011;3282;48.358;10.958;2022-12-07T04:00:29;16.92;;;11.25;;
6497;SDS011;3282;48.358;10.958;2022-12-07T04:02:59;17.60;;;11.43;;
6497;SDS011;3282;48.358;10.958;2022-12-07T04:05:27;19.20;;;11.68;;
6497;SDS011;3282;48.358;10.958;2022-12-07T04:07:54;17.98;;;11.10;;
6497;SDS011;3282;48.358;10.958;2022-12-07T04:10:21;19.17;;;11.65;;
6497;SDS011;3282;48.358;10.958;2022-12-07T04:12:48;18.17;;;11.85;;
6497;SDS011;3282;48.358;10.958;2022-12-07T04:15:15;18.42;;;12.07;;
6497;SDS011;3282;48.358;10.958;2022-12-07T04:17:42;18.63;;;12.10;;
6497;SDS011;3282;48.358;10.958;2022-12-07T04:20:09;17.35;;;11.50;;
6497;SDS011;3282;48.358;10.958;2022-12-07T04:22:38;18.23;;;11.25;;
6497;SDS011;3282;48.358;10.958;2022-12-07T04:25:16;16.65;;;11.38;;
6497;SDS011;3282;48.358;10.958;2022-12-07T04:27:49;20.42;;;12.75;;
6497;SDS011;3282;48.358;10.958;2022-12-07T04:30:20;19.55;;;12.27;;
6497;SDS011;3282;48.358;10.958;2022-12-07T04:32:50;19.75;;;12.90;;
6497;SDS011;3282;48.358;10.958;2022-12-07T04:37:50;19.77;;;12.52;;
6497;SDS011;3282;48.358;10.958;2022-12-07T04:40:23;19.90;;;12.77;;
6497;SDS011;3282;48.358;10.958;2022-12-07T04:42:54;20.20;;;12.75;;
6497;SDS011;3282;48.358;10.958;2022-12-07T04:45:27;18.52;;;12.18;;
6497;SDS011;3282;48.358;10.958;2022-12-07T04:47:57;18.13;;;12.00;;
6497;SDS011;3282;48.358;10.958;2022-12-07T04:50:24;21.35;;;13.32;;
6497;SDS011;3282;48.358;10.958;2022-12-07T04:52:57;19.47;;;12.43;;
6497;SDS011;3282;48.358;10.958;2022-12-07T04:55:27;19.73;;;12.85;;
6497;SDS011;3282;48.358;10.958;2022-12-07T04:57:59;21.02;;;13.40;;
6497;SDS011;3282;48.358;10.958;2022-12-07T05:00:30;19.58;;;13.05;;
6497;SDS011;3282;48.358;10.958;2022-12-07T05:02:57;21.35;;;13.00;;
6497;SDS011;3282;48.358;10.958;2022-12-07T05:05:24;20.27;;;13.30;;
6497;SDS011;3282;48.358;10.958;2022-12-07T05:07:53;21.63;;;13.60;;
6497;SDS011;3282;48.358;10.958;2022-12-07T05:10:20;22.23;;;13.82;;
6497;SDS011;3282;48.358;10.958;2022-12-07T05:12:51;21.88;;;13.38;;
6497;SDS011;3282;48.358;10.958;2022-12-07T05:15:23;19.02;;;12.40;;
6497;SDS011;3282;48.358;10.958;2022-12-07T05:17:53;21.42;;;13.55;;
6497;SDS011;3282;48.358;10.958;2022-12-07T05:20:20;21.75;;;13.18;;
6497;SDS011;3282;48.358;10.958;2022-12-07T05:22:47;20.60;;;12.63;;
6497;SDS011;3282;48.358;10.958;2022-12-07T05:25:21;23.50;;;14.25;;
6497;SDS011;3282;48.358;10.958;2022-12-07T05:27:54;21.67;;;13.60;;
6497;SDS011;3282;48.358;10.958;2022-12-07T05:30:27;20.40;;;12.93;;
6497;SDS011;3282;48.358;10.958;2022-12-07T05:32:54;22.20;;;13.55;;
6497;SDS011;3282;48.358;10.958;2022-12-07T05:35:21;21.83;;;13.52;;
6497;SDS011;3282;48.358;10.958;2022-12-07T05:37:49;21.30;;;13.07;;
6497;SDS011;3282;48.358;10.958;2022-12-07T05:40:16;21.40;;;13.32;;
6497;SDS011;3282;48.358;10.958;2022-12-07T05:42:51;20.92;;;13.00;;
6497;SDS011;3282;48.358;10.958;2022-12-07T05:45:33;22.42;;;13.75;;
6497;SDS011;3282;48.358;10.958;2022-12-07T05:48:00;23.42;;;14.60;;
6497;SDS011;3282;48.358;10.958;2022-12-07T05:50:37;21.80;;;13.35;;
6497;SDS011;3282;48.358;10.958;2022-12-07T05:53:13;22.00;;;13.65;;
6497;SDS011;3282;48.358;10.958;2022-12-07T05:55:54;21.23;;;13.80;;
6497;SDS011;3282;48.358;10.958;2022-12-07T05:58:21;22.58;;;14.13;;
6497;SDS011;3282;48.358;10.958;2022-12-07T06:01:06;23.45;;;14.80;;
6497;SDS011;3282;48.358;10.958;2022-12-07T06:03:35;23.27;;;14.30;;
6497;SDS011;3282;48.358;10.958;2022-12-07T06:06:08;20.73;;;13.07;;
6497;SDS011;3282;48.358;10.958;2022-12-07T06:08:47;24.02;;;13.65;;
6497;SDS011;3282;48.358;10.958;2022-12-07T06:11:22;22.10;;;13.30;;
6497;SDS011;3282;48.358;10.958;2022-12-07T06:14:13;24.75;;;14.55;;
6497;SDS011;3282;48.358;10.958;2022-12-07T06:16:48;23.70;;;14.85;;
6497;SDS011;3282;48.358;10.958;2022-12-07T06:19:24;23.70;;;14.13;;
6497;SDS011;3282;48.358;10.958;2022-12-07T06:21:54;22.45;;;13.68;;
6497;SDS011;3282;48.358;10.958;2022-12-07T06:24:30;22.52;;;13.68;;
6497;SDS011;3282;48.358;10.958;2022-12-07T06:27:13;24.33;;;14.20;;
6497;SDS011;3282;48.358;10.958;2022-12-07T06:29:50;22.08;;;13.57;;
6497;SDS011;3282;48.358;10.958;2022-12-07T06:32:25;22.98;;;14.43;;
6497;SDS011;3282;48.358;10.958;2022-12-07T06:34:56;24.17;;;15.23;;
6497;SDS011;3282;48.358;10.958;2022-12-07T06:37:30;23.42;;;14.68;;
6497;SDS011;3282;48.358;10.958;2022-12-07T06:40:00;24.10;;;14.27;;
6497;SDS011;3282;48.358;10.958;2022-12-07T06:42:31;23.55;;;14.48;;
6497;SDS011;3282;48.358;10.958;2022-12-07T06:45:01;23.38;;;14.52;;
6497;SDS011;3282;48.358;10.958;2022-12-07T06:47:29;24.98;;;15.10;;
6497;SDS011;3282;48.358;10.958;2022-12-07T06:50:07;25.77;;;14.77;;
6497;SDS011;3282;48.358;10.958;2022-12-07T06:52:34;26.05;;;15.35;;
6497;SDS011;3282;48.358;10.958;2022-12-07T06:55:02;28.35;;;15.73;;
6497;SDS011;3282;48.358;10.958;2022-12-07T06:57:31;24.17;;;15.00;;
6497;SDS011;3282;48.358;10.958;2022-12-07T06:59:58;29.63;;;14.95;;
6497;SDS011;3282;48.358;10.958;2022-12-07T07:02:26;27.08;;;15.45;;
6497;SDS011;3282;48.358;10.958;2022-12-07T07:04:54;25.77;;;15.07;;
6497;SDS011;3282;48.358;10.958;2022-12-07T07:07:24;25.70;;;15.00;;
6497;SDS011;3282;48.358;10.958;2022-12-07T07:09:51;27.23;;;15.80;;
6497;SDS011;3282;48.358;10.958;2022-12-07T07:12:21;29.25;;;15.70;;
6497;SDS011;3282;48.358;10.958;2022-12-07T07:14:48;25.90;;;15.20;;
6497;SDS011;3282;48.358;10.958;2022-12-07T07:17:14;24.27;;;14.93;;
6497;SDS011;3282;48.358;10.958;2022-12-07T07:19:41;28.58;;;16.25;;
6497;SDS011;3282;48.358;10.958;2022-12-07T07:22:08;28.85;;;16.20;;
6497;SDS011;3282;48.358;10.958;2022-12-07T07:24:34;28.80;;;16.35;;
6497;SDS011;3282;48.358;10.958;2022-12-07T07:27:01;27.33;;;15.85;;
6497;SDS011;3282;48.358;10.958;2022-12-07T07:29:27;27.58;;;16.00;;
6497;SDS011;3282;48.358;10.958;2022-12-07T07:31:54;26.50;;;15.98;;
6497;SDS011;3282;48.358;10.958;2022-12-07T07:34:20;29.30;;;16.30;;
6497;SDS011;3282;48.358;10.958;2022-12-07T07:36:47;25.70;;;15.57;;
6497;SDS011;3282;48.358;10.958;2022-12-07T07:39:14;28.10;;;16.05;;
6497;SDS011;3282;48.358;10.958;2022-12-07T07:41:40;28.05;;;16.38;;
6497;SDS011;3282;48.358;10.958;2022-12-07T07:44:11;31.40;;;17.90;;
6497;SDS011;3282;48.358;10.958;2022-12-07T07:46:39;29.13;;;16.83;;
6497;SDS011;3282;48.358;10.958;2022-12-07T07:49:05;29.58;;;16.55;;
6497;SDS011;3282;48.358;10.958;2022-12-07T07:51:32;30.13;;;17.38;;
6497;SDS011;3282;48.358;10.958;2022-12-07T07:53:59;28.08;;;16.80;;
6497;SDS011;3282;48.358;10.958;2022-12-07T07:56:25;33.83;;;17.90;;
6497;SDS011;3282;48.358;10.958;2022-12-07T07:58:52;32.95;;;17.33;;
6497;SDS011;3282;48.358;10.958;2022-12-07T08:01:22;29.75;;;16.60;;
6497;SDS011;3282;48.358;10.958;2022-12-07T08:03:48;28.27;;;17.20;;
6497;SDS011;3282;48.358;10.958;2022-12-07T08:06:15;30.25;;;17.20;;
6497;SDS011;3282;48.358;10.958;2022-12-07T08:08:42;29.83;;;17.42;;
6497;SDS011;3282;48.358;10.958;2022-12-07T08:11:09;29.42;;;17.52;;
6497;SDS011;3282;48.358;10.958;2022-12-07T08:13:36;30.00;;;17.58;;
6497;SDS011;3282;48.358;10.958;2022-12-07T08:16:06;29.38;;;16.85;;
6497;SDS011;3282;48.358;10.958;2022-12-07T08:18:35;30.42;;;16.98;;
6497;SDS011;3282;48.358;10.958;2022-12-07T08:21:03;29.42;;;17.05;;
6497;SDS011;3282;48.358;10.958;2022-12-07T08:23:33;29.27;;;16.98;;
6497;SDS011;3282;48.358;10.958;2022-12-07T08:26:06;30.63;;;17.88;;
6497;SDS011;3282;48.358;10.958;2022-12-07T08:28:35;27.85;;;16.63;;
6497;SDS011;3282;48.358;10.958;2022-12-07T08:31:11;28.83;;;16.73;;
6497;SDS011;3282;48.358;10.958;2022-12-07T08:33:42;30.52;;;16.85;;
6497;SDS011;3282;48.358;10.958;2022-12-07T08:36:09;29.63;;;17.25;;
6497;SDS011;3282;48.358;10.958;2022-12-07T08:38:44;28.73;;;16.73;;
6497;SDS011;3282;48.358;10.958;2022-12-07T08:41:31;33.90;;;18.65;;
6497;SDS011;3282;48.358;10.958;2022-12-07T08:43:59;31.58;;;17.27;;
6497;SDS011;3282;48.358;10.958;2022-12-07T08:46:28;28.30;;;16.80;;
6497;SDS011;3282;48.358;10.958;2022-12-07T08:49:13;27.13;;;16.42;;
6497;SDS011;3282;48.358;10.958;2022-12-07T08:51:43;26.52;;;16.40;;
6497;SDS011;3282;48.358;10.958;2022-12-07T08:54:14;28.52;;;16.42;;
6497;SDS011;3282;48.358;10.958;2022-12-07T08:56:43;26.65;;;16.15;;
6497;SDS011;3282;48.358;10.958;2022-12-07T08:59:12;28.45;;;16.42;;
6497;SDS011;3282;48.358;10.958;2022-12-07T09:01:41;27.05;;;16.48;;
6497;SDS011;3282;48.358;10.958;2022-12-07T09:04:08;27.77;;;15.95;;
6497;SDS011;3282;48.358;10.958;2022-12-07T09:06:35;30.27;;;17.13;;
6497;SDS011;3282;48.358;10.958;2022-12-07T09:09:02;26.77;;;16.00;;
6497;SDS011;3282;48.358;10.958;2022-12-07T09:11:30;27.27;;;16.48;;
6497;SDS011;3282;48.358;10.958;2022-12-07T09:14:00;25.13;;;14.88;;
6497;SDS011;3282;48.358;10.958;2022-12-07T09:16:28;26.15;;;15.70;;
6497;SDS011;3282;48.358;10.958;2022-12-07T09:18:58;25.55;;;14.60;;
6497;SDS011;3282;48.358;10.958;2022-12-07T09:21:28;24.58;;;14.60;;
6497;SDS011;3282;48.358;10.958;2022-12-07T09:23:58;22.92;;;14.65;;
6497;SDS011;3282;48.358;10.958;2022-12-07T09:26:25;20.40;;;13.23;;
6497;SDS011;3282;48.358;10.958;2022-12-07T09:28:52;21.77;;;13.35;;
6497;SDS011;3282;48.358;10.958;2022-12-07T09:31:19;20.38;;;12.57;;
6497;SDS011;3282;48.358;10.958;2022-12-07T09:33:55;20.60;;;12.35;;
6497;SDS011;3282;48.358;10.958;2022-12-07T09:36:26;22.63;;;13.25;;
6497;SDS011;3282;48.358;10.958;2022-12-07T09:38:54;22.42;;;13.20;;
6497;SDS011;3282;48.358;10.958;2022-12-07T09:41:21;21.17;;;12.52;;
6497;SDS011;3282;48.358;10.958;2022-12-07T09:43:50;19.65;;;12.05;;
6497;SDS011;3282;48.358;10.958;2022-12-07T09:46:19;19.95;;;12.15;;
6497;SDS011;3282;48.358;10.958;2022-12-07T09:48:47;18.73;;;11.88;;
6497;SDS011;3282;48.358;10.958;2022-12-07T09:51:17;19.55;;;12.18;;
6497;SDS011;3282;48.358;10.958;2022-12-07T09:53:51;19.23;;;11.75;;
6497;SDS011;3282;48.358;10.958;2022-12-07T09:56:19;19.38;;;11.93;;
6497;SDS011;3282;48.358;10.958;2022-12-07T09:58:48;21.83;;;13.25;;
6497;SDS011;3282;48.358;10.958;2022-12-07T10:01:17;19.38;;;11.90;;
6497;SDS011;3282;48.358;10.958;2022-12-07T10:03:55;18.15;;;11.50;;
6497;SDS011;3282;48.358;10.958;2022-12-07T10:06:30;21.20;;;11.95;;
6497;SDS011;3282;48.358;10.958;2022-12-07T10:08:57;17.88;;;11.82;;
6497;SDS011;3282;48.358;10.958;2022-12-07T10:11:24;18.20;;;11.48;;
6497;SDS011;3282;48.358;10.958;2022-12-07T10:13:53;17.33;;;11.27;;
6497;SDS011;3282;48.358;10.958;2022-12-07T10:18:51;18.70;;;12.52;;
6497;SDS011;3282;48.358;10.958;2022-12-07T10:26:38;18.45;;;12.18;;
6497;SDS011;3282;48.358;10.958;2022-12-07T10:31:51;17.23;;;11.70;;
6497;SDS011;3282;48.358;10.958;2022-12-07T10:34:22;16.73;;;11.95;;
6497;SDS011;3282;48.358;10.958;2022-12-07T10:36:51;17.30;;;12.40;;
6497;SDS011;3282;48.358;10.958;2022-12-07T10:39:22;16.77;;;12.35;;
6497;SDS011;3282;48.358;10.958;2022-12-07T10:41:59;17.23;;;12.13;;
6497;SDS011;3282;48.358;10.958;2022-12-07T10:44:29;16.48;;;10.60;;
6497;SDS011;3282;48.358;10.958;2022-12-07T10:47:04;15.52;;;10.55;;
6497;SDS011;3282;48.358;10.958;2022-12-07T11:00:21;12.48;;;8.63;;
6497;SDS011;3282;48.358;10.958;2022-12-07T11:16:04;13.07;;;8.40;;
6497;SDS011;3282;48.358;10.958;2022-12-07T11:18:50;12.93;;;8.40;;
6497;SDS011;3282;48.358;10.958;2022-12-07T11:21:38;12.60;;;7.88;;
6497;SDS011;3282;48.358;10.958;2022-12-07T11:24:15;12.73;;;8.07;;
6497;SDS011;3282;48.358;10.958;2022-12-07T11:26:50;13.68;;;8.60;;
6497;SDS011;3282;48.358;10.958;2022-12-07T11:29:33;13.13;;;8.85;;
6497;SDS011;3282;48.358;10.958;2022-12-07T11:37:36;12.57;;;8.43;;
6497;SDS011;3282;48.358;10.958;2022-12-07T11:40:11;16.17;;;9.23;;
6497;SDS011;3282;48.358;10.958;2022-12-07T11:42:49;13.88;;;9.15;;
6497;SDS011;3282;48.358;10.958;2022-12-07T11:45:37;13.88;;;8.27;;
6497;SDS011;3282;48.358;10.958;2022-12-07T11:48:15;14.95;;;9.05;;
6497;SDS011;3282;48.358;10.958;2022-12-07T11:50:50;13.82;;;8.50;;
6497;SDS011;3282;48.358;10.958;2022-12-07T11:53:24;14.43;;;8.55;;
6497;SDS011;3282;48.358;10.958;2022-12-07T11:55:56;14.20;;;8.68;;
6497;SDS011;3282;48.358;10.958;2022-12-07T12:01:16;15.57;;;8.30;;
6497;SDS011;3282;48.358;10.958;2022-12-07T12:03:53;14.40;;;8.70;;
6497;SDS011;3282;48.358;10.958;2022-12-07T12:06:24;12.80;;;8.25;;
6497;SDS011;3282;48.358;10.958;2022-12-07T12:15:18;15.82;;;8.07;;
6497;SDS011;3282;48.358;10.958;2022-12-07T12:17:50;13.35;;;8.38;;
6497;SDS011;3282;48.358;10.958;2022-12-07T12:20:36;19.17;;;10.60;;
6497;SDS011;3282;48.358;10.958;2022-12-07T12:25:46;18.50;;;9.05;;
6497;SDS011;3282;48.358;10.958;2022-12-07T12:34:00;16.00;;;9.00;;
6497;SDS011;3282;48.358;10.958;2022-12-07T12:39:19;16.63;;;9.68;;
6497;SDS011;3282;48.358;10.958;2022-12-07T12:55:16;14.88;;;7.72;;
6497;SDS011;3282;48.358;10.958;2022-12-07T12:58:34;11.68;;;6.65;;
6497;SDS011;3282;48.358;10.958;2022-12-07T13:03:58;12.90;;;8.05;;
6497;SDS011;3282;48.358;10.958;2022-12-07T13:08:55;13.18;;;8.18;;
6497;SDS011;3282;48.358;10.958;2022-12-07T13:17:10;18.38;;;11.35;;
6497;SDS011;3282;48.358;10.958;2022-12-07T13:27:57;13.02;;;7.70;;
6497;SDS011;3282;48.358;10.958;2022-12-07T13:30:27;18.02;;;9.05;;
6497;SDS011;3282;48.358;10.958;2022-12-07T13:32:57;15.07;;;8.95;;
6497;SDS011;3282;48.358;10.958;2022-12-07T13:37:55;14.10;;;7.50;;
6497;SDS011;3282;48.358;10.958;2022-12-07T13:40:25;17.38;;;9.00;;
6497;SDS011;3282;48.358;10.958;2022-12-07T13:43:02;13.55;;;7.88;;
6497;SDS011;3282;48.358;10.958;2022-12-07T13:45:42;15.32;;;8.07;;
6497;SDS011;3282;48.358;10.958;2022-12-07T13:51:01;9.65;;;6.10;;
6497;SDS011;3282;48.358;10.958;2022-12-07T13:53:36;11.07;;;6.25;;
6497;SDS011;3282;48.358;10.958;2022-12-07T13:56:15;13.88;;;7.63;;
6497;SDS011;3282;48.358;10.958;2022-12-07T13:58:46;13.05;;;7.05;;
6497;SDS011;3282;48.358;10.958;2022-12-07T14:01:13;13.52;;;7.43;;
6497;SDS011;3282;48.358;10.958;2022-12-07T14:03:43;17.00;;;8.93;;
6497;SDS011;3282;48.358;10.958;2022-12-07T14:06:22;39.78;;;24.70;;
6497;SDS011;3282;48.358;10.958;2022-12-07T14:11:44;14.80;;;7.90;;
6497;SDS011;3282;48.358;10.958;2022-12-07T14:14:16;12.40;;;7.03;;
6497;SDS011;3282;48.358;10.958;2022-12-07T14:22:25;12.25;;;7.05;;
6497;SDS011;3282;48.358;10.958;2022-12-07T14:25:44;15.98;;;8.90;;
6497;SDS011;3282;48.358;10.958;2022-12-07T14:27:54;18.45;;;8.90;;
6497;SDS011;3282;48.358;10.958;2022-12-07T14:30:23;15.82;;;8.23;;
6497;SDS011;3282;48.358;10.958;2022-12-07T14:32:55;13.10;;;7.65;;
6497;SDS011;3282;48.358;10.958;2022-12-07T14:35:34;11.80;;;7.30;;
6497;SDS011;3282;48.358;10.958;2022-12-07T14:38:03;14.27;;;7.50;;
6497;SDS011;3282;48.358;10.958;2022-12-07T14:40:30;13.60;;;7.85;;
6497;SDS011;3282;48.358;10.958;2022-12-07T14:43:00;16.85;;;7.63;;
6497;SDS011;3282;48.358;10.958;2022-12-07T14:45:29;21.05;;;9.02;;
6497;SDS011;3282;48.358;10.958;2022-12-07T14:48:02;16.98;;;8.65;;
6497;SDS011;3282;48.358;10.958;2022-12-07T14:50:53;18.40;;;8.88;;
6497;SDS011;3282;48.358;10.958;2022-12-07T14:53:50;15.98;;;9.02;;
6497;SDS011;3282;48.358;10.958;2022-12-07T14:56:25;19.92;;;10.13;;
6497;SDS011;3282;48.358;10.958;2022-12-07T14:58:59;26.20;;;14.20;;
6497;SDS011;3282;48.358;10.958;2022-12-07T15:01:40;38.72;;;18.63;;
6497;SDS011;3282;48.358;10.958;2022-12-07T15:04:15;19.02;;;9.68;;
6497;SDS011;3282;48.358;10.958;2022-12-07T15:06:53;14.43;;;8.73;;
6497;SDS011;3282;48.358;10.958;2022-12-07T15:09:24;15.93;;;8.75;;
6497;SDS011;3282;48.358;10.958;2022-12-07T15:11:56;17.98;;;9.68;;
6497;SDS011;3282;48.358;10.958;2022-12-07T15:14:22;23.17;;;14.77;;
6497;SDS011;3282;48.358;10.958;2022-12-07T15:16:49;22.90;;;13.15;;
6497;SDS011;3282;48.358;10.958;2022-12-07T15:19:35;24.55;;;13.20;;
6497;SDS011;3282;48.358;10.958;2022-12-07T15:22:01;22.73;;;15.25;;
6497;SDS011;3282;48.358;10.958;2022-12-07T15:24:28;32.35;;;20.02;;
6497;SDS011;3282;48.358;10.958;2022-12-07T15:26:54;30.73;;;17.83;;
6497;SDS011;3282;48.358;10.958;2022-12-07T15:29:21;26.25;;;15.43;;
6497;SDS011;3282;48.358;10.958;2022-12-07T15:31:50;26.95;;;15.82;;
6497;SDS011;3282;48.358;10.958;2022-12-07T15:34:25;24.73;;;15.38;;
6497;SDS011;3282;48.358;10.958;2022-12-07T15:37:05;23.90;;;14.88;;
6497;SDS011;3282;48.358;10.958;2022-12-07T15:39:34;21.50;;;13.52;;
6497;SDS011;3282;48.358;10.958;2022-12-07T15:42:02;17.58;;;10.88;;
6497;SDS011;3282;48.358;10.958;2022-12-07T15:44:29;19.30;;;10.80;;
6497;SDS011;3282;48.358;10.958;2022-12-07T15:47:34;15.27;;;10.15;;
6497;SDS011;3282;48.358;10.958;2022-12-07T15:50:28;17.55;;;9.70;;
6497;SDS011;3282;48.358;10.958;2022-12-07T15:52:57;16.42;;;9.60;;
6497;SDS011;3282;48.358;10.958;2022-12-07T15:55:26;18.17;;;10.40;;
6497;SDS011;3282;48.358;10.958;2022-12-07T15:57:53;19.63;;;11.15;;
6497;SDS011;3282;48.358;10.958;2022-12-07T16:00:19;20.13;;;10.70;;
6497;SDS011;3282;48.358;10.958;2022-12-07T16:02:46;20.75;;;11.88;;
6497;SDS011;3282;48.358;10.958;2022-12-07T16:05:13;20.33;;;12.02;;
6497;SDS011;3282;48.358;10.958;2022-12-07T16:07:39;20.17;;;11.23;;
6497;SDS011;3282;48.358;10.958;2022-12-07T16:10:06;18.40;;;10.85;;
6497;SDS011;3282;48.358;10.958;2022-12-07T16:12:33;15.30;;;9.52;;
6497;SDS011;3282;48.358;10.958;2022-12-07T16:15:00;17.23;;;9.60;;
6497;SDS011;3282;48.358;10.958;2022-12-07T16:17:27;16.63;;;9.50;;
6497;SDS011;3282;48.358;10.958;2022-12-07T16:19:54;17.65;;;9.43;;
6497;SDS011;3282;48.358;10.958;2022-12-07T16:22:20;19.00;;;8.88;;
6497;SDS011;3282;48.358;10.958;2022-12-07T16:24:47;17.33;;;10.00;;
6497;SDS011;3282;48.358;10.958;2022-12-07T16:27:13;17.58;;;9.63;;
6497;SDS011;3282;48.358;10.958;2022-12-07T16:29:40;17.95;;;10.48;;
6497;SDS011;3282;48.358;10.958;2022-12-07T16:32:07;23.98;;;13.18;;
6497;SDS011;3282;48.358;10.958;2022-12-07T16:34:33;34.45;;;20.25;;
6497;SDS011;3282;48.358;10.958;2022-12-07T16:37:00;40.33;;;23.67;;
6497;SDS011;3282;48.358;10.958;2022-12-07T16:39:30;38.85;;;22.25;;
6497;SDS011;3282;48.358;10.958;2022-12-07T16:41:58;25.73;;;15.63;;
6497;SDS011;3282;48.358;10.958;2022-12-07T16:44:24;25.70;;;11.98;;
6497;SDS011;3282;48.358;10.958;2022-12-07T16:46:51;21.13;;;10.57;;
6497;SDS011;3282;48.358;10.958;2022-12-07T16:49:17;16.70;;;9.30;;
6497;SDS011;3282;48.358;10.958;2022-12-07T16:51:45;14.93;;;9.25;;
6497;SDS011;3282;48.358;10.958;2022-12-07T16:54:13;14.63;;;8.88;;
6497;SDS011;3282;48.358;10.958;2022-12-07T16:56:40;16.73;;;9.30;;
6497;SDS011;3282;48.358;10.958;2022-12-07T16:59:07;17.45;;;9.55;;
6497;SDS011;3282;48.358;10.958;2022-12-07T17:01:34;21.30;;;9.80;;
6497;SDS011;3282;48.358;10.958;2022-12-07T17:04:02;17.75;;;9.65;;
6497;SDS011;3282;48.358;10.958;2022-12-07T17:06:31;15.25;;;9.32;;
6497;SDS011;3282;48.358;10.958;2022-12-07T17:08:58;19.63;;;10.15;;
6497;SDS011;3282;48.358;10.958;2022-12-07T17:11:29;18.27;;;9.85;;